Terminal Aerodrome Forecast
Issued by NWS

Home | Current Version | Previous Version | Text Only | Print | Product List | Glossary On
Versions: 1 2 3 4 5 6 7 8 9 10 11 12 13 14 15 16 17 18
000
FTUS41 KBTV 270539 AAC
TAFSLK
TAF AMD
KSLK 270539Z 2706/2806 VRB03KT 4SM BR VCSH SCT003
      TEMPO 2706/2710 1/2SM FG OVC002
     FM271200 VRB03KT P6SM SCT015
     FM271400 01004KT P6SM SCT035=

USA.gov is the U.S. government's official web portal to all federal, state and local government web resources and services.